createdAt,value
2022-10-05T00:02:38.454Z,97.78
2022-10-05T00:05:41.305Z,97.53
2022-10-05T00:08:44.341Z,97.62
2022-10-05T00:11:48.806Z,97.48
2022-10-05T00:14:54.463Z,98.71
2022-10-05T00:17:57.054Z,98.48
2022-10-05T00:20:59.684Z,98.34
2022-10-05T00:24:02.699Z,97.74
2022-10-05T00:27:16.049Z,97.80
2022-10-05T00:30:20.491Z,98.56
2022-10-05T00:33:23.230Z,98.16
2022-10-05T00:36:26.172Z,97.98
2022-10-05T00:39:29.976Z,98.38
2022-10-05T00:42:40.109Z,98.04
2022-10-05T00:45:46.405Z,98.08
2022-10-05T00:48:56.618Z,98.00
2022-10-05T00:52:05.476Z,98.41
2022-10-05T00:55:13.085Z,99.05
2022-10-05T00:58:23.290Z,99.09
2022-10-05T01:01:29.647Z,98.33
2022-10-05T01:04:38.115Z,98.58
2022-10-05T01:07:44.206Z,98.48
2022-10-05T01:10:50.066Z,99.28
2022-10-05T01:13:58.349Z,98.60
2022-10-05T01:17:05.045Z,99.41
2022-10-05T01:20:25.022Z,99.69
2022-10-05T01:23:59.275Z,98.68
2022-10-05T01:27:11.090Z,99.43
2022-10-05T01:30:17.547Z,99.08
2022-10-05T01:33:25.469Z,99.61
2022-10-05T01:36:32.368Z,98.78
2022-10-05T01:39:41.063Z,99.10
2022-10-05T01:42:52.808Z,99.67
2022-10-05T01:46:03.473Z,99.55
2022-10-05T01:49:17.746Z,98.99
2022-10-05T01:52:29.823Z,99.05
2022-10-05T01:55:36.211Z,99.80
2022-10-05T01:58:42.961Z,99.93
2022-10-05T02:01:50.264Z,99.93
2022-10-05T02:05:02.083Z,99.59
2022-10-05T02:08:09.190Z,98.46
2022-10-05T02:11:14.587Z,98.42
2022-10-05T02:14:20.440Z,99.58
2022-10-05T02:17:27.413Z,99.68
2022-10-05T02:20:33.286Z,100.00
2022-10-05T02:23:37.974Z,99.51
2022-10-05T02:26:41.345Z,99.10
2022-10-05T02:29:46.821Z,99.04
2022-10-05T02:32:56.529Z,99.48
2022-10-05T02:36:02.687Z,98.82
2022-10-05T02:39:11.282Z,99.25
2022-10-05T02:42:17.641Z,99.93
2022-10-05T02:45:24.803Z,99.35
2022-10-05T02:48:37.836Z,99.50
2022-10-05T02:51:46.515Z,99.87
2022-10-05T02:54:53.781Z,99.75
2022-10-05T02:57:59.711Z,99.38
2022-10-05T03:01:09.267Z,99.79
2022-10-05T03:04:21.078Z,99.53
2022-10-05T03:07:27.010Z,100.00
2022-10-05T03:10:36.166Z,100.00
2022-10-05T03:13:46.900Z,100.00
2022-10-05T03:16:56.964Z,100.00
2022-10-05T03:20:12.255Z,99.53
2022-10-05T03:23:20.446Z,99.52
2022-10-05T03:26:33.698Z,99.51
2022-10-05T03:29:40.688Z,100.00
2022-10-05T03:32:52.311Z,99.83
2022-10-05T03:36:02.940Z,100.00
2022-10-05T03:39:11.643Z,100.00
2022-10-05T03:42:21.414Z,100.00
2022-10-05T03:45:28.632Z,99.94
2022-10-05T03:48:34.765Z,99.74
2022-10-05T03:51:43.865Z,99.95
2022-10-05T03:54:48.734Z,99.22
2022-10-05T03:57:53.558Z,99.49
2022-10-05T04:01:00.185Z,99.74
2022-10-05T04:04:05.304Z,99.20
2022-10-05T04:07:14.212Z,99.94
2022-10-05T04:10:19.024Z,99.96
2022-10-05T04:13:25.359Z,100.00
2022-10-05T04:16:30.924Z,100.00
2022-10-05T04:19:38.132Z,100.00
2022-10-05T04:22:45.463Z,99.58
2022-10-05T04:25:51.996Z,100.00
2022-10-05T04:28:58.275Z,99.97
2022-10-05T04:32:25.592Z,100.00
2022-10-05T04:35:43.354Z,100.00
2022-10-05T04:38:55.294Z,100.00
2022-10-05T04:42:09.344Z,100.00
2022-10-05T04:45:19.987Z,99.79
2022-10-05T04:48:41.628Z,100.00
2022-10-05T04:51:51.474Z,100.00
2022-10-05T04:55:04.456Z,100.00
2022-10-05T04:58:14.074Z,100.00
2022-10-05T05:01:27.477Z,99.56
2022-10-05T05:04:47.148Z,100.00
2022-10-05T05:07:56.868Z,100.00
2022-10-05T05:11:15.889Z,100.00
2022-10-05T05:14:33.515Z,99.67
2022-10-05T05:17:49.973Z,100.00
2022-10-05T05:20:57.600Z,100.00
2022-10-05T05:24:06.086Z,100.00
2022-10-05T05:27:25.129Z,100.00
2022-10-05T05:30:36.053Z,99.61
2022-10-05T05:33:45.811Z,100.00
2022-10-05T05:36:54.493Z,100.00
2022-10-05T05:40:06.514Z,100.00
2022-10-05T05:43:24.185Z,100.00
2022-10-05T05:46:51.227Z,99.49
2022-10-05T05:50:07.018Z,100.00
2022-10-05T05:53:16.010Z,100.00
2022-10-05T05:56:22.294Z,100.00
2022-10-05T05:59:30.186Z,100.00
2022-10-05T06:02:39.305Z,99.73
2022-10-05T06:05:45.219Z,100.00
2022-10-05T06:08:49.132Z,100.00
2022-10-05T06:11:54.479Z,100.00
2022-10-05T06:15:00.862Z,100.00
2022-10-05T06:18:06.186Z,100.00
2022-10-05T06:21:14.790Z,100.00
2022-10-05T06:24:23.081Z,100.00
2022-10-05T06:27:36.719Z,100.00
2022-10-05T06:30:51.637Z,99.92
2022-10-05T06:33:56.084Z,100.00
2022-10-05T06:37:01.606Z,100.00
2022-10-05T06:40:11.737Z,99.49
2022-10-05T06:43:25.841Z,99.14
2022-10-05T06:46:33.936Z,99.17
2022-10-05T06:49:43.225Z,99.54
2022-10-05T06:52:57.788Z,98.74
2022-10-05T06:56:05.722Z,98.71
2022-10-05T06:59:10.860Z,98.02
2022-10-05T07:02:20.398Z,97.38
2022-10-05T07:05:44.829Z,97.25
2022-10-05T07:08:56.877Z,97.56
2022-10-05T07:12:09.057Z,97.25
2022-10-05T07:15:23.547Z,96.26
2022-10-05T07:18:37.300Z,95.45
2022-10-05T07:21:45.667Z,96.14
2022-10-05T07:24:52.603Z,95.78
2022-10-05T07:27:59.150Z,95.20
2022-10-05T07:31:05.917Z,95.02
2022-10-05T07:34:16.516Z,95.05
2022-10-05T07:37:39.570Z,94.84
2022-10-05T07:40:45.402Z,94.13
2022-10-05T07:44:12.544Z,93.39
2022-10-05T07:47:20.123Z,91.54
2022-10-05T07:50:27.805Z,90.78
2022-10-05T07:53:34.434Z,90.74
2022-10-05T07:56:40.465Z,90.98
2022-10-05T07:59:46.018Z,88.13
2022-10-05T08:02:51.870Z,88.00
2022-10-05T08:05:56.238Z,88.09
2022-10-05T08:09:03.954Z,86.93
2022-10-05T08:12:24.578Z,86.31
2022-10-05T08:15:31.286Z,84.15
2022-10-05T08:18:43.659Z,84.81
2022-10-05T08:21:52.111Z,81.42
2022-10-05T08:24:59.347Z,82.32
2022-10-05T08:28:06.188Z,82.56
2022-10-05T08:31:14.865Z,81.95
2022-10-05T08:34:24.238Z,81.65
2022-10-05T08:37:32.344Z,80.40
2022-10-05T08:41:04.899Z,79.84
2022-10-05T08:44:40.996Z,78.77
2022-10-05T08:48:00.649Z,77.81
2022-10-05T08:51:37.050Z,76.53
2022-10-05T08:54:47.990Z,75.34
2022-10-05T08:58:03.205Z,74.64
2022-10-05T09:01:11.344Z,74.42
2022-10-05T09:04:24.226Z,73.13
2022-10-05T09:07:44.295Z,72.60
2022-10-05T09:11:03.811Z,71.52
2022-10-05T09:14:36.702Z,70.76
2022-10-05T09:18:08.370Z,69.92
2022-10-05T09:21:15.399Z,69.88
2022-10-05T09:24:27.319Z,69.32
2022-10-05T09:27:39.640Z,68.31
2022-10-05T09:30:53.012Z,68.05
2022-10-05T09:34:27.099Z,67.22
2022-10-05T09:37:31.108Z,66.52
2022-10-05T09:40:57.885Z,65.78
2022-10-05T09:44:34.027Z,65.24
2022-10-05T09:48:05.509Z,64.44
2022-10-05T09:51:31.668Z,64.09
2022-10-05T09:55:04.828Z,63.86
2022-10-05T09:58:31.984Z,63.52
2022-10-05T10:01:51.296Z,62.85
2022-10-05T10:05:33.229Z,62.47
2022-10-05T10:08:45.152Z,62.02
2022-10-05T10:12:00.978Z,62.06
2022-10-05T10:15:38.293Z,61.37
2022-10-05T10:19:06.121Z,60.81
2022-10-05T10:22:27.056Z,60.34
2022-10-05T10:26:11.389Z,59.97
2022-10-05T10:29:41.340Z,59.64
2022-10-05T10:33:21.955Z,59.14
2022-10-05T10:36:40.145Z,58.47
2022-10-05T10:39:58.963Z,58.35
2022-10-05T10:43:29.515Z,58.12
2022-10-05T10:46:39.735Z,57.69
2022-10-05T10:50:05.041Z,56.86
2022-10-05T10:53:38.496Z,56.04
2022-10-05T10:56:50.620Z,53.44
2022-10-05T11:00:21.718Z,50.92
2022-10-05T11:03:48.174Z,49.57
2022-10-05T11:07:18.376Z,49.89
2022-10-05T11:10:33.714Z,49.23
2022-10-05T11:13:47.800Z,48.63
2022-10-05T11:17:22.229Z,49.12
2022-10-05T11:20:48.851Z,47.74
2022-10-05T11:24:23.008Z,47.85
2022-10-05T11:27:42.079Z,47.69
2022-10-05T11:31:10.928Z,47.92
2022-10-05T11:34:46.968Z,46.71
2022-10-05T11:38:22.491Z,46.83
2022-10-05T11:41:41.394Z,46.35
2022-10-05T11:45:11.740Z,46.33
2022-10-05T11:48:32.477Z,46.51
2022-10-05T11:51:41.356Z,46.36
2022-10-05T11:55:14.855Z,46.41
2022-10-05T11:58:23.168Z,46.13
2022-10-05T12:01:30.886Z,45.97
2022-10-05T12:04:39.295Z,45.72
2022-10-05T12:07:47.547Z,45.51
2022-10-05T12:10:58.957Z,45.37
2022-10-05T12:14:05.606Z,44.79
2022-10-05T12:17:17.414Z,45.07
2022-10-05T12:20:22.964Z,43.89
2022-10-05T12:23:33.709Z,43.93
2022-10-05T12:26:40.711Z,43.51
2022-10-05T12:29:45.925Z,43.07
2022-10-05T12:33:00.913Z,43.50
2022-10-05T12:36:09.360Z,43.67
2022-10-05T12:39:19.951Z,43.53
2022-10-05T12:42:29.261Z,42.26
2022-10-05T12:45:43.558Z,36.06
2022-10-05T12:49:21.396Z,28.81
2022-10-05T12:52:33.989Z,24.78
2022-10-05T12:55:42.330Z,22.71
2022-10-05T12:58:53.477Z,24.56
2022-10-05T13:02:00.168Z,21.83
2022-10-05T13:05:12.668Z,20.21
2022-10-05T13:08:22.526Z,18.95
2022-10-05T13:11:31.466Z,19.37
2022-10-05T13:14:46.503Z,17.54
2022-10-05T13:17:56.902Z,17.77
2022-10-05T13:21:05.311Z,18.53
2022-10-05T13:24:13.974Z,20.93
2022-10-05T13:27:22.039Z,19.10
2022-10-05T13:30:24.854Z,20.61
2022-10-05T13:33:48.513Z,17.69
2022-10-05T13:37:03.499Z,19.78
2022-10-05T13:40:18.655Z,19.16
2022-10-05T13:43:27.499Z,16.83
2022-10-05T13:46:37.881Z,14.81
2022-10-05T13:52:57.948Z,14.78
2022-10-05T13:56:02.036Z,13.51
2022-10-05T13:59:15.111Z,12.76
2022-10-05T14:02:22.357Z,13.38
2022-10-05T14:05:26.893Z,13.10
2022-10-05T14:08:32.719Z,15.97
2022-10-05T14:11:36.525Z,16.14
2022-10-05T14:14:47.328Z,18.06
2022-10-05T14:17:51.350Z,18.31
2022-10-05T14:21:05.863Z,16.68
2022-10-05T14:27:51.511Z,17.40
2022-10-05T14:31:00.471Z,17.42
2022-10-05T14:34:37.337Z,19.61
2022-10-05T14:37:47.360Z,17.65
2022-10-05T14:41:07.275Z,16.01
2022-10-05T14:44:27.941Z,15.21
2022-10-05T14:47:34.328Z,16.09
2022-10-05T14:50:52.291Z,18.50
2022-10-05T14:53:58.745Z,13.91
2022-10-05T14:57:11.331Z,14.79
2022-10-05T15:00:16.636Z,15.53
2022-10-05T15:03:33.229Z,16.17
2022-10-05T15:06:39.322Z,19.14
2022-10-05T15:09:51.037Z,16.03
2022-10-05T15:12:55.387Z,14.61
2022-10-05T15:16:01.559Z,14.48
2022-10-05T15:19:18.037Z,16.23
2022-10-05T15:22:29.129Z,14.38
2022-10-05T15:25:37.181Z,14.83
2022-10-05T15:28:48.322Z,15.79
2022-10-05T15:31:56.066Z,14.63
2022-10-05T15:35:15.127Z,16.36
2022-10-05T15:38:21.944Z,14.94
2022-10-05T15:41:26.095Z,15.02
2022-10-05T15:44:39.911Z,15.58
2022-10-05T15:47:49.147Z,19.41
2022-10-05T15:50:55.852Z,21.13
2022-10-05T15:54:20.782Z,22.70
2022-10-05T15:57:27.085Z,25.65
2022-10-05T16:00:32.756Z,31.28
2022-10-05T16:03:44.992Z,33.69
2022-10-05T16:07:08.538Z,35.18
2022-10-05T16:10:21.394Z,34.88
2022-10-05T16:13:34.097Z,35.40
2022-10-05T16:16:42.698Z,36.18
2022-10-05T16:19:49.742Z,36.39
2022-10-05T16:22:59.773Z,36.67
2022-10-05T16:26:13.302Z,37.29
2022-10-05T16:29:21.193Z,38.05
2022-10-05T16:32:30.297Z,39.47
2022-10-05T16:35:38.681Z,40.76
2022-10-05T16:38:47.459Z,41.60
2022-10-05T16:41:56.641Z,42.08
2022-10-05T16:45:06.879Z,43.33
2022-10-05T16:48:13.710Z,43.93
2022-10-05T16:51:26.690Z,43.82
2022-10-05T16:54:33.831Z,43.59
2022-10-05T16:57:40.550Z,44.43
2022-10-05T17:00:53.036Z,44.15
2022-10-05T17:04:07.258Z,44.18
2022-10-05T17:07:25.240Z,44.63
2022-10-05T17:10:49.380Z,44.51
2022-10-05T17:14:13.919Z,44.42
2022-10-05T17:17:32.621Z,45.13
2022-10-05T17:20:43.536Z,45.53
2022-10-05T17:23:54.670Z,45.62
2022-10-05T17:27:15.965Z,45.71
2022-10-05T17:30:37.526Z,45.94
2022-10-05T17:34:26.364Z,46.02
2022-10-05T17:37:36.651Z,47.55
2022-10-05T17:40:40.375Z,49.99
2022-10-05T17:44:19.122Z,51.48
2022-10-05T17:48:03.700Z,51.65
2022-10-05T17:51:34.745Z,52.10
2022-10-05T17:55:13.496Z,51.53
2022-10-05T17:59:02.193Z,50.82
2022-10-05T18:02:21.760Z,49.83
2022-10-05T18:05:27.863Z,50.02
2022-10-05T18:08:38.449Z,49.01
2022-10-05T18:11:42.985Z,49.49
2022-10-05T18:14:55.995Z,49.65
2022-10-05T18:18:21.948Z,48.65
2022-10-05T18:21:35.550Z,48.54
2022-10-05T18:24:46.878Z,48.91
2022-10-05T18:28:16.587Z,48.89
2022-10-05T18:31:27.922Z,49.53
2022-10-05T18:34:34.627Z,49.37
2022-10-05T18:37:46.960Z,49.37
2022-10-05T18:40:54.538Z,49.24
2022-10-05T18:44:08.945Z,49.69
2022-10-05T18:47:17.601Z,50.07
2022-10-05T18:50:28.098Z,50.34
2022-10-05T18:53:38.652Z,50.49
2022-10-05T18:56:45.259Z,50.08
2022-10-05T18:59:52.326Z,50.52
2022-10-05T19:02:59.288Z,50.69
2022-10-05T19:06:13.431Z,50.56
2022-10-05T19:09:25.203Z,51.19
2022-10-05T19:12:41.397Z,51.69
2022-10-05T19:15:51.604Z,51.58
2022-10-05T19:19:04.971Z,51.62
2022-10-05T19:22:17.180Z,51.97
2022-10-05T19:25:27.939Z,52.30
2022-10-05T19:28:35.902Z,52.44
2022-10-05T19:31:41.783Z,53.30
2022-10-05T19:34:52.990Z,53.89
2022-10-05T19:38:11.769Z,54.19
2022-10-05T19:41:19.417Z,54.66
2022-10-05T19:44:32.509Z,55.34
2022-10-05T19:47:44.687Z,55.96
2022-10-05T19:50:54.546Z,57.50
2022-10-05T19:54:01.998Z,58.96
2022-10-05T19:57:16.903Z,60.87
2022-10-05T20:00:24.657Z,61.51
2022-10-05T20:03:29.743Z,62.44
2022-10-05T20:06:32.555Z,62.90
2022-10-05T20:13:04.915Z,63.71
2022-10-05T20:16:27.222Z,63.83
2022-10-05T20:19:54.550Z,63.79
2022-10-05T20:23:22.100Z,63.49
2022-10-05T20:27:01.225Z,63.54
2022-10-05T20:30:06.379Z,63.40
2022-10-05T20:33:14.656Z,63.34
2022-10-05T20:36:17.363Z,63.41
2022-10-05T20:39:21.464Z,63.24
2022-10-05T20:42:24.353Z,63.34
2022-10-05T20:45:28.505Z,63.63
2022-10-05T20:48:31.369Z,63.66
2022-10-05T20:51:34.259Z,63.54
2022-10-05T20:54:37.643Z,63.52
2022-10-05T20:57:42.201Z,64.00
2022-10-05T21:01:04.267Z,63.97
2022-10-05T21:04:06.895Z,64.23
2022-10-05T21:07:10.230Z,64.85
2022-10-05T21:10:14.215Z,64.22
2022-10-05T21:13:17.621Z,64.05
2022-10-05T21:16:23.038Z,64.37
2022-10-05T21:19:26.095Z,63.98
2022-10-05T21:22:28.898Z,63.46
2022-10-05T21:25:31.806Z,63.74
2022-10-05T21:28:34.965Z,64.03
2022-10-05T21:31:39.291Z,64.06
2022-10-05T21:34:42.796Z,63.87
2022-10-05T21:37:45.161Z,63.97
2022-10-05T21:40:48.068Z,63.88
2022-10-05T21:43:50.773Z,63.88
2022-10-05T21:46:56.117Z,63.92
2022-10-05T21:50:00.372Z,63.56
2022-10-05T21:53:04.607Z,63.94
2022-10-05T21:56:10.644Z,64.04
2022-10-05T21:59:14.800Z,63.26
2022-10-05T22:02:18.830Z,62.08
2022-10-05T22:05:21.732Z,61.92
2022-10-05T22:08:27.184Z,62.36
2022-10-05T22:11:30.198Z,62.66
2022-10-05T22:14:32.868Z,62.46
2022-10-05T22:17:37.180Z,62.73
2022-10-05T22:20:40.090Z,63.44
2022-10-05T22:23:44.581Z,62.48
2022-10-05T22:26:48.401Z,62.70
2022-10-05T22:29:51.944Z,62.49
2022-10-05T22:32:55.907Z,62.96
2022-10-05T22:35:59.699Z,63.65
2022-10-05T22:39:02.711Z,63.69
2022-10-05T22:42:05.818Z,63.70
2022-10-05T22:45:09.731Z,64.31
2022-10-05T22:48:13.992Z,64.38
2022-10-05T22:51:16.647Z,65.13
2022-10-05T22:54:19.409Z,65.41
2022-10-05T22:57:22.163Z,65.07
2022-10-05T23:00:40.452Z,65.77
2022-10-05T23:03:49.014Z,65.90
2022-10-05T23:06:51.782Z,65.47
2022-10-05T23:09:54.572Z,65.69
2022-10-05T23:13:00.822Z,66.21
2022-10-05T23:16:08.441Z,65.78
2022-10-05T23:19:12.923Z,65.65
2022-10-05T23:22:15.571Z,65.22
2022-10-05T23:25:18.555Z,65.95
2022-10-05T23:28:21.751Z,66.38
2022-10-05T23:31:26.500Z,66.36
2022-10-05T23:34:30.556Z,66.55
2022-10-05T23:37:33.570Z,66.33
2022-10-05T23:40:36.220Z,66.19
2022-10-05T23:43:38.855Z,66.36
2022-10-05T23:46:41.635Z,66.26
2022-10-05T23:49:45.681Z,66.39
2022-10-05T23:52:48.458Z,66.28
2022-10-05T23:55:51.692Z,66.34
2022-10-05T23:58:54.538Z,66.77
